Time;durP1;ratioP1;P1;durP2;ratioP2;P2;SDS_P1;SDS_P2;PMS_P1;PMS_P2;Temp;Humidity;BMP_temperature;BMP_pressure;BME280_temperature;BME280_humidity;BME280_pressure;Samples;Min_cycle;Max_cycle;Signal;HPM_P1;HPM_P2
2021/05/01 00:01:09;;;;;;;3.50;2.10;;;19.70;69.50;;;;;;4081947;28;20046;-59
2021/05/01 00:03:11;;;;;;;3.42;2.10;;;19.70;69.60;;;;;;4075652;28;20520;-62
2021/05/01 00:05:14;;;;;;;3.40;1.90;;;19.70;69.60;;;;;;4082378;28;20513;-60
2021/05/01 00:07:16;;;;;;;2.67;1.98;;;19.70;69.70;;;;;;4076484;28;20032;-63
2021/05/01 00:09:18;;;;;;;3.63;2.17;;;19.70;70.30;;;;;;4084618;29;20026;-60
2021/05/01 00:11:22;;;;;;;4.80;2.00;;;19.70;69.80;;;;;;4078617;28;20642;-67
2021/05/01 00:13:24;;;;;;;2.15;1.70;;;19.70;69.90;;;;;;4077418;28;20157;-60
2021/05/01 00:15:27;;;;;;;4.25;1.90;;;19.70;70.00;;;;;;4078385;28;20408;-65
2021/05/01 00:17:29;;;;;;;4.33;1.93;;;19.80;70.20;;;;;;4078791;28;20055;-60
2021/05/01 00:19:31;;;;;;;3.40;1.95;;;19.70;70.20;;;;;;4080259;28;20491;-67
2021/05/01 00:21:33;;;;;;;4.88;2.20;;;19.80;70.30;;;;;;4082285;28;20039;-59
2021/05/01 00:23:35;;;;;;;4.88;2.22;;;19.80;70.40;;;;;;4079271;28;20117;-64
2021/05/01 00:25:37;;;;;;;2.60;2.13;;;19.80;70.50;;;;;;4080075;28;20047;-59
2021/05/01 00:27:42;;;;;;;8.90;2.55;;;19.80;70.70;;;;;;4078382;28;20394;-63
2021/05/01 00:29:44;;;;;;;7.25;3.00;;;19.90;70.70;;;;;;4079688;28;20070;-57
2021/05/01 00:31:46;;;;;;;14.73;3.00;;;19.90;71.00;;;;;;4082471;28;20035;-58
2021/05/01 00:33:48;;;;;;;18.67;3.63;;;19.90;71.10;;;;;;4079988;28;20043;-60
2021/05/01 00:35:50;;;;;;;6.60;3.33;;;19.90;71.10;;;;;;4077537;28;20055;-61
2021/05/01 00:37:52;;;;;;;10.50;3.50;;;19.90;71.00;;;;;;4077640;28;20202;-60
2021/05/01 00:39:54;;;;;;;12.38;3.72;;;20.00;71.50;;;;;;4084744;28;20063;-65
2021/05/01 00:41:57;;;;;;;9.70;3.20;;;19.90;71.30;;;;;;4073796;28;20133;-62
2021/05/01 00:43:59;;;;;;;12.07;3.30;;;19.90;71.00;;;;;;4080412;28;20111;-60
2021/05/01 00:46:04;;;;;;;7.63;3.38;;;20.00;70.90;;;;;;4078038;28;20117;-62
2021/05/01 00:48:06;;;;;;;6.78;3.08;;;20.00;71.00;;;;;;4079230;28;20106;-61
2021/05/01 00:50:09;;;;;;;6.05;2.70;;;20.00;70.90;;;;;;4080389;28;20569;-61
2021/05/01 00:52:11;;;;;;;6.97;2.88;;;20.00;70.90;;;;;;4078071;29;20019;-60
2021/05/01 00:54:14;;;;;;;6.95;2.78;;;20.00;71.00;;;;;;4075728;28;20166;-61
2021/05/01 00:56:16;;;;;;;3.58;2.55;;;20.00;70.70;;;;;;4081229;28;20034;-61
2021/05/01 00:58:19;;;;;;;6.88;2.53;;;20.00;70.70;;;;;;4077238;28;20597;-62
2021/05/01 01:02:43;;;;;;;4.78;2.60;;;20.00;70.90;;;;;;4077783;28;20113;-62
2021/05/01 01:04:45;;;;;;;4.85;2.40;;;20.00;71.00;;;;;;4075454;28;20047;-61
2021/05/01 01:06:48;;;;;;;4.28;2.50;;;20.00;70.90;;;;;;4076097;28;20106;-62
2021/05/01 01:08:50;;;;;;;3.30;2.40;;;20.00;71.00;;;;;;4078833;28;20046;-61
2021/05/01 01:10:53;;;;;;;4.47;1.92;;;20.00;70.90;;;;;;4079625;28;20573;-61
2021/05/01 01:12:55;;;;;;;4.07;2.28;;;20.00;70.60;;;;;;4081484;28;20043;-63
2021/05/01 01:14:59;;;;;;;4.30;2.20;;;20.00;70.80;;;;;;4082421;28;20229;-60
2021/05/01 01:17:01;;;;;;;2.85;2.10;;;20.10;70.80;;;;;;4076945;28;20040;-63
2021/05/01 01:19:04;;;;;;;2.20;1.90;;;20.10;70.60;;;;;;4084009;28;20466;-63
2021/05/01 01:21:07;;;;;;;4.18;1.95;;;20.10;70.70;;;;;;4078964;28;20509;-59
2021/05/01 01:23:10;;;;;;;4.18;2.10;;;20.10;70.70;;;;;;4082169;28;20047;-63
2021/05/01 01:25:12;;;;;;;4.65;2.58;;;20.10;70.90;;;;;;4073909;28;20279;-62
2021/05/01 01:27:15;;;;;;;2.63;2.17;;;20.10;71.20;;;;;;4079828;29;20572;-62
2021/05/01 01:29:17;;;;;;;3.70;2.23;;;20.10;71.20;;;;;;4075836;28;20044;-62
2021/05/01 01:31:20;;;;;;;4.65;2.40;;;20.10;71.30;;;;;;4078141;28;20023;-62
2021/05/01 01:33:22;;;;;;;3.67;2.60;;;20.20;71.40;;;;;;4077912;28;20131;-62
2021/05/01 01:35:24;;;;;;;3.25;2.60;;;20.20;71.50;;;;;;4082310;28;20059;-62
2021/05/01 01:37:27;;;;;;;3.70;2.50;;;20.20;71.60;;;;;;4075473;28;20055;-61
2021/05/01 01:39:29;;;;;;;3.25;2.40;;;20.20;71.80;;;;;;4083475;28;20027;-63
2021/05/01 01:41:31;;;;;;;3.40;2.50;;;20.20;71.70;;;;;;4078534;28;20119;-64
2021/05/01 01:43:33;;;;;;;3.80;2.60;;;20.20;72.00;;;;;;4079359;28;20231;-63
2021/05/01 01:45:35;;;;;;;3.88;2.47;;;20.30;72.10;;;;;;4079618;28;20056;-60
2021/05/01 01:47:37;;;;;;;3.65;2.38;;;20.30;72.00;;;;;;4078870;28;20048;-60
2021/05/01 01:49:41;;;;;;;4.28;2.65;;;20.30;72.00;;;;;;4078060;28;20053;-62
2021/05/01 01:51:43;;;;;;;3.75;2.70;;;20.30;71.90;;;;;;4076476;28;20085;-61
2021/05/01 01:53:45;;;;;;;3.75;2.55;;;20.30;71.90;;;;;;4075164;28;20127;-62
2021/05/01 01:55:48;;;;;;;4.80;2.83;;;20.30;71.90;;;;;;4072899;29;20142;-61
2021/05/01 01:57:51;;;;;;;3.13;2.47;;;20.30;71.90;;;;;;4084208;28;20027;-63
2021/05/01 01:59:53;;;;;;;4.30;2.90;;;20.30;71.80;;;;;;4074451;28;20047;-61
2021/05/01 02:01:56;;;;;;;3.85;2.55;;;20.30;72.00;;;;;;4074248;28;20060;-62
2021/05/01 02:03:58;;;;;;;5.32;2.88;;;20.30;72.30;;;;;;4064437;29;20458;-62
2021/05/01 02:06:00;;;;;;;4.50;2.97;;;20.40;72.80;;;;;;4062894;29;20493;-62
2021/05/01 02:08:03;;;;;;;5.63;2.85;;;20.40;72.70;;;;;;4070055;28;20038;-63
2021/05/01 02:10:06;;;;;;;4.38;2.60;;;20.40;72.90;;;;;;4081158;29;21118;-63
2021/05/01 02:12:09;;;;;;;3.92;2.97;;;20.40;73.00;;;;;;4063962;28;20262;-61
2021/05/01 02:14:11;;;;;;;5.53;2.88;;;20.40;73.30;;;;;;4069709;28;20120;-61
2021/05/01 02:16:13;;;;;;;4.38;2.53;;;20.50;73.50;;;;;;4079148;28;20039;-63
2021/05/01 02:18:15;;;;;;;5.28;2.83;;;20.50;73.50;;;;;;4059163;29;20483;-63
2021/05/01 02:20:20;;;;;;;4.13;2.80;;;20.50;73.30;;;;;;4070532;28;20146;-63
2021/05/01 02:22:22;;;;;;;3.88;2.75;;;20.50;73.20;;;;;;4076998;28;20330;-63
2021/05/01 02:24:24;;;;;;;3.10;2.63;;;20.50;73.20;;;;;;4083475;28;20158;-63
2021/05/01 02:26:27;;;;;;;4.75;2.60;;;20.50;73.70;;;;;;4076066;28;20170;-63
2021/05/01 02:28:29;;;;;;;4.65;3.13;;;20.50;73.10;;;;;;4081513;28;20528;-61
2021/05/01 02:30:31;;;;;;;4.40;3.05;;;20.50;73.10;;;;;;4084404;28;20130;-64
2021/05/01 02:32:33;;;;;;;4.10;2.90;;;20.50;73.00;;;;;;4089343;28;20047;-63
2021/05/01 02:34:35;;;;;;;4.05;2.70;;;20.60;73.10;;;;;;4076620;28;20071;-64
2021/05/01 02:36:37;;;;;;;6.07;3.10;;;20.60;73.10;;;;;;4083966;28;20031;-62
2021/05/01 02:38:39;;;;;;;4.95;2.92;;;20.60;73.10;;;;;;4067044;28;20040;-60
2021/05/01 02:40:41;;;;;;;4.78;3.28;;;20.60;73.10;;;;;;4072477;28;20035;-62
2021/05/01 02:42:45;;;;;;;4.95;2.85;;;20.60;73.10;;;;;;4088445;28;20031;-61
2021/05/01 02:44:47;;;;;;;3.55;2.80;;;20.60;73.30;;;;;;4078469;28;20469;-62
2021/05/01 02:46:49;;;;;;;4.65;3.03;;;20.60;73.50;;;;;;4084013;28;20110;-62
2021/05/01 02:48:51;;;;;;;4.10;3.00;;;20.70;73.70;;;;;;4085238;29;20036;-60
2021/05/01 02:50:54;;;;;;;4.88;2.70;;;20.70;73.60;;;;;;4080415;28;20600;-62
2021/05/01 02:52:56;;;;;;;4.43;2.60;;;20.70;73.80;;;;;;4081461;28;20062;-63
2021/05/01 02:54:58;;;;;;;5.25;3.10;;;20.70;73.80;;;;;;4080768;28;20055;-63
2021/05/01 02:57:00;;;;;;;5.05;2.40;;;20.70;74.00;;;;;;4077946;28;20039;-61
2021/05/01 02:59:02;;;;;;;5.07;2.72;;;20.80;74.10;;;;;;4084790;28;20179;-62
2021/05/01 03:01:05;;;;;;;4.63;2.60;;;20.80;74.10;;;;;;4085047;28;20035;-61
2021/05/01 03:03:07;;;;;;;3.63;2.90;;;20.80;74.10;;;;;;4079048;28;20179;-63
2021/05/01 03:05:10;;;;;;;3.85;2.45;;;20.80;74.10;;;;;;4079923;28;20137;-62
2021/05/01 03:07:12;;;;;;;;;;;20.80;74.00;;;;;;4091657;28;20027;-62
2021/05/01 03:09:14;;;;;;;5.47;2.60;;;20.80;74.30;;;;;;4080816;28;19922;-61
2021/05/01 03:11:16;;;;;;;4.32;2.63;;;20.80;74.10;;;;;;4086864;28;20058;-63
2021/05/01 03:13:18;;;;;;;4.65;3.10;;;20.90;74.10;;;;;;4080572;28;20039;-62
2021/05/01 03:15:21;;;;;;;4.88;2.80;;;20.90;74.20;;;;;;4080980;29;20047;-60
2021/05/01 03:17:23;;;;;;;4.97;2.70;;;20.90;74.20;;;;;;4074484;28;20040;-61
2021/05/01 03:19:25;;;;;;;5.50;3.30;;;20.90;74.10;;;;;;4079061;28;20067;-61
2021/05/01 03:21:27;;;;;;;4.15;2.85;;;20.90;74.40;;;;;;4080729;28;20035;-60
2021/05/01 03:23:29;;;;;;;5.72;3.00;;;20.90;74.30;;;;;;4081758;28;20044;-61
2021/05/01 03:25:31;;;;;;;6.10;2.80;;;20.90;74.50;;;;;;4080253;28;20121;-60
2021/05/01 03:27:34;;;;;;;4.85;2.90;;;21.00;74.40;;;;;;4077987;29;20042;-60
2021/05/01 03:29:36;;;;;;;5.40;2.85;;;21.00;74.30;;;;;;4078607;28;20032;-62
2021/05/01 03:31:39;;;;;;;3.92;2.83;;;21.00;74.60;;;;;;4076169;28;20047;-60
2021/05/01 03:33:42;;;;;;;4.40;2.80;;;21.00;74.10;;;;;;4074925;28;20600;-61
2021/05/01 03:35:44;;;;;;;4.38;2.53;;;21.00;73.70;;;;;;4082303;28;20167;-60
2021/05/01 03:37:48;;;;;;;5.35;2.70;;;21.00;73.60;;;;;;4075932;28;20051;-62
2021/05/01 03:39:50;;;;;;;5.07;2.95;;;21.00;73.40;;;;;;4080332;28;20074;-61
2021/05/01 03:41:52;;;;;;;4.57;2.80;;;21.10;73.50;;;;;;4079639;28;21102;-61
2021/05/01 03:43:54;;;;;;;3.53;2.63;;;21.10;73.40;;;;;;4078614;28;20519;-62
2021/05/01 03:45:58;;;;;;;3.85;2.60;;;21.10;73.30;;;;;;4082187;28;20046;-60
2021/05/01 03:48:00;;;;;;;4.18;2.75;;;21.10;73.30;;;;;;4074507;28;20586;-61
2021/05/01 03:50:03;;;;;;;5.93;3.13;;;21.10;73.30;;;;;;4079065;28;20032;-64
2021/05/01 03:52:05;;;;;;;5.88;2.67;;;21.10;73.30;;;;;;4079128;28;20024;-62
2021/05/01 03:54:08;;;;;;;5.15;3.35;;;21.10;73.90;;;;;;4078835;28;20735;-63
2021/05/01 03:56:10;;;;;;;3.88;2.60;;;21.10;73.30;;;;;;4071566;28;20501;-63
2021/05/01 03:58:12;;;;;;;4.18;2.78;;;21.10;73.20;;;;;;4076109;28;20039;-62
2021/05/01 04:00:15;;;;;;;4.25;3.03;;;21.10;73.00;;;;;;4063363;28;20215;-60
2021/05/01 04:02:17;;;;;;;10.48;5.78;;;21.10;72.90;;;;;;4071811;28;20501;-62
2021/05/01 04:04:19;;;;;;;6.30;3.30;;;21.10;73.00;;;;;;4070360;28;20028;-63
2021/05/01 04:06:21;;;;;;;7.90;3.78;;;21.20;73.00;;;;;;4073903;28;20090;-63
2021/05/01 04:08:23;;;;;;;6.97;3.15;;;21.20;73.00;;;;;;4068598;28;20062;-62
2021/05/01 04:10:26;;;;;;;10.38;4.10;;;21.20;73.00;;;;;;4073793;28;20268;-61
2021/05/01 04:12:28;;;;;;;7.70;4.93;;;21.20;73.60;;;;;;4071472;28;20094;-62
2021/05/01 04:14:30;;;;;;;11.25;5.10;;;21.20;74.40;;;;;;4069435;28;20559;-62
2021/05/01 04:16:32;;;;;;;8.70;4.90;;;21.20;75.10;;;;;;4076222;28;20023;-62
2021/05/01 04:18:34;;;;;;;9.15;4.60;;;21.30;75.30;;;;;;4070123;28;20050;-61
2021/05/01 04:20:36;;;;;;;9.20;4.38;;;21.30;75.00;;;;;;4064996;28;20032;-61
2021/05/01 04:22:38;;;;;;;7.32;4.10;;;21.30;74.70;;;;;;4061539;29;20142;-61
2021/05/01 04:24:40;;;;;;;7.13;3.03;;;21.30;74.10;;;;;;4078320;28;20338;-62
2021/05/01 04:26:42;;;;;;;8.30;4.10;;;21.40;73.40;;;;;;4073667;28;20678;-61
2021/05/01 04:28:44;;;;;;;7.05;3.92;;;21.40;73.00;;;;;;4075961;28;20053;-60
2021/05/01 04:30:46;;;;;;;7.75;3.40;;;21.50;72.80;;;;;;4074047;28;20387;-61
2021/05/01 04:32:50;;;;;;;5.05;3.47;;;21.50;72.60;;;;;;4074076;28;20047;-63
2021/05/01 04:34:51;;;;;;;;;;;21.60;72.40;;;;;;4074383;28;20569;-63
2021/05/01 04:36:53;;;;;;;8.55;3.50;;;21.60;72.30;;;;;;4075137;28;19921;-63
2021/05/01 04:38:55;;;;;;;6.57;3.20;;;21.60;72.20;;;;;;4075340;28;20059;-61
2021/05/01 04:40:59;;;;;;;5.45;3.00;;;21.60;72.00;;;;;;4071391;28;20138;-62
2021/05/01 04:43:05;;;;;;;7.55;2.63;;;21.60;72.10;;;;;;4074063;28;20390;-66
2021/05/01 04:45:07;;;;;;;6.50;3.00;;;21.60;72.20;;;;;;4073703;28;20035;-67
2021/05/01 04:47:10;;;;;;;6.80;2.38;;;21.60;72.50;;;;;;4072648;28;20420;-66
2021/05/01 04:49:12;;;;;;;7.85;2.63;;;21.70;72.70;;;;;;4075048;28;20150;-64
2021/05/01 04:51:14;;;;;;;3.65;2.50;;;21.70;73.00;;;;;;4073957;28;20074;-67
2021/05/01 04:53:16;;;;;;;5.70;2.55;;;21.70;72.70;;;;;;4076228;28;20071;-67
2021/05/01 04:55:18;;;;;;;7.93;2.40;;;21.70;72.70;;;;;;4075879;28;20062;-60
2021/05/01 04:57:20;;;;;;;10.25;2.28;;;21.80;72.60;;;;;;4075289;28;20373;-62
2021/05/01 04:59:23;;;;;;;4.15;2.22;;;21.90;72.70;;;;;;4076219;28;20125;-68
2021/05/01 05:01:26;;;;;;;4.82;2.25;;;21.90;72.80;;;;;;4072270;28;20039;-63
2021/05/01 05:03:28;;;;;;;5.13;1.90;;;22.00;72.90;;;;;;4062837;29;20042;-68
2021/05/01 05:05:30;;;;;;;5.97;1.92;;;22.00;72.90;;;;;;4055258;29;20477;-69
2021/05/01 05:07:32;;;;;;;3.72;2.30;;;22.10;72.90;;;;;;4063949;28;20428;-66
2021/05/01 05:09:34;;;;;;;3.47;2.13;;;22.10;73.60;;;;;;4073368;28;20069;-67
2021/05/01 05:11:36;;;;;;;7.97;2.40;;;22.20;72.70;;;;;;4072946;28;20158;-64
2021/05/01 05:13:39;;;;;;;10.00;2.17;;;22.20;72.50;;;;;;4070230;28;20105;-66
2021/05/01 05:15:41;;;;;;;8.73;2.47;;;22.30;72.40;;;;;;4078521;28;20520;-67
2021/05/01 05:17:46;;;;;;;5.47;2.10;;;22.40;72.30;;;;;;4072351;28;20083;-65
2021/05/01 05:19:48;;;;;;;7.28;2.22;;;22.40;72.00;;;;;;4073922;28;20236;-66
2021/05/01 05:21:50;;;;;;;6.93;2.40;;;22.50;72.00;;;;;;4078446;28;20118;-65
2021/05/01 05:23:53;;;;;;;13.13;2.53;;;22.50;71.90;;;;;;4074421;28;20043;-67
2021/05/01 05:25:55;;;;;;;3.95;2.10;;;22.60;71.90;;;;;;4072468;28;20080;-62
2021/05/01 05:27:57;;;;;;;8.87;2.50;;;22.60;72.50;;;;;;4075432;28;20720;-62
2021/05/01 05:30:00;;;;;;;6.28;2.13;;;22.60;71.70;;;;;;4074272;28;20904;-68
2021/05/01 05:32:04;;;;;;;12.10;2.75;;;22.70;71.70;;;;;;4071865;28;20572;-65
2021/05/01 05:34:06;;;;;;;6.38;2.00;;;22.70;71.70;;;;;;4076013;28;20029;-62
2021/05/01 05:36:08;;;;;;;6.68;1.83;;;22.80;71.60;;;;;;4072112;28;20039;-67
2021/05/01 05:38:11;;;;;;;4.70;1.90;;;22.80;71.50;;;;;;4071523;28;20161;-66
2021/05/01 05:40:13;;;;;;;9.30;2.20;;;;;;;;;;4071652;28;20417;-63
2021/05/01 05:42:16;;;;;;;8.13;1.67;;;22.80;71.00;;;;;;4078050;28;20043;-63
2021/05/01 05:44:18;;;;;;;10.45;2.10;;;22.90;71.50;;;;;;4073224;28;20043;-72
2021/05/01 05:46:20;;;;;;;3.85;1.67;;;22.90;71.60;;;;;;4070794;28;20729;-67
2021/05/01 05:48:22;;;;;;;5.93;1.65;;;22.90;71.60;;;;;;4076808;28;20482;-66
2021/05/01 05:50:25;;;;;;;6.80;2.00;;;22.90;71.50;;;;;;4073382;28;20323;-60
2021/05/01 05:52:27;;;;;;;11.30;1.90;;;22.90;71.50;;;;;;4073279;28;20131;-63
2021/05/01 05:54:29;;;;;;;4.93;1.85;;;23.00;71.60;;;;;;4077128;28;20357;-61
2021/05/01 05:56:34;;;;;;;5.97;1.50;;;22.90;71.60;;;;;;4069357;28;20603;-64
2021/05/01 05:58:36;;;;;;;10.75;1.95;;;22.90;71.60;;;;;;4071747;28;20559;-65
2021/05/01 06:00:38;;;;;;;10.20;1.97;;;22.90;71.70;;;;;;4076214;28;20035;-66
2021/05/01 06:02:43;;;;;;;6.60;1.95;;;23.00;71.90;;;;;;4071159;28;20333;-67
2021/05/01 06:04:57;;;;;;;4.68;1.73;;;23.00;71.80;;;;;;4079456;28;20039;-64
2021/05/01 06:07:11;;;;;;;6.10;1.67;;;23.00;71.80;;;;;;4071574;28;20091;-64
2021/05/01 06:09:15;;;;;;;7.15;2.17;;;23.00;71.80;;;;;;4081503;29;20114;-62
2021/05/01 06:11:21;;;;;;;7.82;1.60;;;23.00;71.90;;;;;;4076218;28;20443;-61
2021/05/01 06:13:28;;;;;;;6.00;1.42;;;22.90;71.80;;;;;;4077486;28;20065;-64
2021/05/01 06:15:30;;;;;;;7.50;1.73;;;22.90;71.70;;;;;;4075199;28;20103;-64
2021/05/01 06:17:34;;;;;;;2.97;1.42;;;23.00;72.00;;;;;;4070320;28;20440;-62
2021/05/01 06:19:38;;;;;;;6.68;1.63;;;23.00;71.90;;;;;;4064849;28;20039;-61
2021/05/01 06:21:40;;;;;;;9.40;2.15;;;23.00;71.80;;;;;;4060224;29;20032;-62
2021/05/01 06:23:42;;;;;;;9.35;2.13;;;23.10;71.90;;;;;;4077685;28;20493;-57
2021/05/01 06:25:46;;;;;;;8.43;1.73;;;23.10;71.70;;;;;;4074485;28;20062;-53
2021/05/01 06:27:53;;;;;;;5.05;1.50;;;23.10;71.20;;;;;;4065593;29;20129;-59
2021/05/01 06:29:55;;;;;;;4.97;2.10;;;23.10;70.80;;;;;;4067702;28;20036;-58
2021/05/01 06:31:59;;;;;;;27.70;3.30;;;23.10;70.60;;;;;;4077322;28;20045;-60
2021/05/01 06:34:02;;;;;;;46.10;4.72;;;23.10;70.50;;;;;;4072558;28;20171;-58
2021/05/01 06:36:05;;;;;;;19.30;3.63;;;;;;;;;;4070538;28;20095;-57
2021/05/01 06:38:07;;;;;;;22.50;2.78;;;;;;;;;;4066778;28;20121;-58
2021/05/01 06:40:13;;;;;;;10.90;2.40;;;;;;;;;;4057167;29;20036;-56
2021/05/01 06:42:18;;;;;;;6.90;1.40;;;;;;;;;;4073959;28;20043;-59
2021/05/01 06:44:28;;;;;;;9.10;1.60;;;;;;;;;;4073034;28;20058;-66
2021/05/01 06:46:31;;;;;;;8.27;2.17;;;;;;;;;;4065031;28;20023;-62
2021/05/01 06:48:35;;;;;;;6.07;1.90;;;23.10;70.60;;;;;;4074322;28;20031;-63
2021/05/01 06:50:40;;;;;;;8.63;2.33;;;23.20;69.20;;;;;;4074013;28;20051;-61
2021/05/01 06:52:44;;;;;;;7.30;1.77;;;23.20;69.60;;;;;;4066048;28;20071;-57
2021/05/01 06:54:48;;;;;;;5.15;1.70;;;23.20;69.50;;;;;;4070682;28;20036;-60
2021/05/01 06:56:51;;;;;;;4.32;1.67;;;23.20;69.40;;;;;;4069964;28;20390;-61
2021/05/01 06:58:57;;;;;;;9.07;2.40;;;23.20;68.70;;;;;;4065868;28;20103;-61
2021/05/01 07:01:05;;;;;;;4.90;1.98;;;23.20;68.90;;;;;;4057979;29;20133;-61
2021/05/01 07:03:09;;;;;;;5.45;2.10;;;23.10;69.40;;;;;;4072140;28;20106;-71
2021/05/01 07:05:22;;;;;;;7.07;2.90;;;23.10;69.30;;;;;;4080916;28;20139;-70
2021/05/01 07:07:27;;;;;;;5.82;2.50;;;23.20;69.50;;;;;;4076041;28;20505;-72
2021/05/01 07:09:31;;;;;;;8.70;3.42;;;23.20;69.60;;;;;;4078139;28;20034;-67
2021/05/01 07:11:35;;;;;;;9.57;4.03;;;23.20;69.70;;;;;;4077418;28;20415;-67
2021/05/01 07:13:38;;;;;;;7.68;3.28;;;23.20;69.90;;;;;;4084412;28;20046;-66
2021/05/01 07:15:41;;;;;;;7.90;3.40;;;23.20;69.90;;;;;;4077446;28;20027;-67
2021/05/01 07:17:45;;;;;;;7.18;3.72;;;23.20;70.00;;;;;;4079409;28;20153;-67
2021/05/01 07:19:47;;;;;;;8.30;5.45;;;23.20;70.20;;;;;;4077467;28;20045;-70
2021/05/01 07:21:49;;;;;;;10.68;6.45;;;23.20;70.00;;;;;;4079114;28;20076;-61
2021/05/01 07:23:52;;;;;;;8.70;5.80;;;23.20;69.70;;;;;;4064932;29;20036;-61
2021/05/01 07:25:54;;;;;;;7.55;5.80;;;23.20;69.50;;;;;;4067313;28;20556;-62
2021/05/01 07:28:05;;;;;;;7.75;6.75;;;23.20;69.40;;;;;;4065888;29;20406;-63
2021/05/01 07:30:08;;;;;;;8.02;6.53;;;23.20;69.30;;;;;;4079391;28;20055;-62
2021/05/01 07:32:10;;;;;;;;;;;23.30;69.30;;;;;;4078325;28;20048;-62
2021/05/01 07:34:21;;;;;;;8.48;7.45;;;23.20;69.20;;;;;;4080446;28;19918;-63
2021/05/01 07:36:34;;;;;;;9.07;7.65;;;23.20;69.20;;;;;;4075934;29;20134;-62
2021/05/01 07:38:37;;;;;;;13.80;8.57;;;23.20;69.20;;;;;;4074700;28;20107;-62
2021/05/01 07:40:40;;;;;;;9.10;7.80;;;23.20;69.30;;;;;;4081637;28;20042;-62
2021/05/01 07:42:46;;;;;;;10.45;9.30;;;23.10;69.30;;;;;;4077542;28;20139;-62
2021/05/01 07:44:51;;;;;;;10.27;9.23;;;23.10;69.50;;;;;;4077267;28;20119;-63
2021/05/01 07:46:54;;;;;;;11.02;9.27;;;23.10;69.80;;;;;;4079103;28;20043;-62
2021/05/01 07:48:56;;;;;;;11.32;8.88;;;23.10;70.10;;;;;;4080575;29;20487;-62
2021/05/01 07:50:59;;;;;;;11.80;9.23;;;23.10;70.20;;;;;;4077093;28;20047;-62
2021/05/01 07:53:04;;;;;;;8.80;7.90;;;23.10;70.30;;;;;;4076349;28;20138;-63
2021/05/01 07:55:06;;;;;;;8.50;7.22;;;23.10;70.30;;;;;;4080886;28;20027;-63
2021/05/01 07:57:09;;;;;;;7.47;6.50;;;23.10;70.20;;;;;;4080814;28;20035;-63
2021/05/01 07:59:11;;;;;;;6.90;5.93;;;23.10;70.10;;;;;;4077203;28;20421;-63
2021/05/01 08:01:14;;;;;;;6.60;5.55;;;23.10;70.00;;;;;;4077880;28;20019;-63
2021/05/01 08:03:16;;;;;;;6.15;5.32;;;23.00;70.00;;;;;;4078495;28;20296;-63
2021/05/01 08:05:21;;;;;;;5.88;5.00;;;23.00;70.00;;;;;;4078203;28;20031;-63
2021/05/01 08:07:23;;;;;;;5.47;4.57;;;23.00;70.00;;;;;;4079947;28;20178;-63
2021/05/01 08:09:25;;;;;;;5.95;4.88;;;23.00;70.00;;;;;;4078682;28;20023;-62
2021/05/01 08:11:28;;;;;;;5.50;4.40;;;22.90;70.00;;;;;;4067375;28;20039;-63
2021/05/01 08:13:30;;;;;;;6.35;4.63;;;22.90;70.60;;;;;;4075933;28;20027;-61
2021/05/01 08:15:33;;;;;;;6.45;3.78;;;22.90;70.00;;;;;;4078552;28;20027;-63
2021/05/01 08:17:36;;;;;;;5.88;3.78;;;22.90;70.00;;;;;;4061529;29;20631;-63
2021/05/01 08:19:38;;;;;;;5.03;3.58;;;22.90;70.00;;;;;;4077313;28;20096;-62
2021/05/01 08:21:40;;;;;;;5.20;3.65;;;22.90;70.00;;;;;;4083387;28;20582;-62
2021/05/01 08:23:42;;;;;;;4.88;3.20;;;22.90;70.00;;;;;;4077727;28;20040;-63
2021/05/01 08:25:44;;;;;;;3.83;3.25;;;22.90;70.00;;;;;;4074836;28;20438;-62
2021/05/01 08:27:46;;;;;;;4.82;3.20;;;22.90;69.90;;;;;;4076361;28;20028;-62
2021/05/01 08:29:49;;;;;;;3.80;2.70;;;22.90;69.90;;;;;;4077491;28;20109;-63
2021/05/01 08:31:51;;;;;;;3.42;2.63;;;22.90;69.90;;;;;;4075961;28;20039;-62
2021/05/01 08:33:53;;;;;;;3.90;2.53;;;22.90;70.00;;;;;;4083290;28;20119;-62
2021/05/01 08:35:56;;;;;;;3.83;2.67;;;22.90;69.90;;;;;;4077730;28;20055;-62
2021/05/01 08:37:59;;;;;;;3.83;2.85;;;22.90;69.90;;;;;;4079723;28;20036;-62
2021/05/01 08:40:01;;;;;;;3.30;2.38;;;22.90;69.90;;;;;;4077703;28;21592;-61
2021/05/01 08:42:03;;;;;;;3.92;2.97;;;22.80;69.90;;;;;;4078550;28;20047;-61
2021/05/01 08:44:08;;;;;;;3.70;2.55;;;22.80;69.80;;;;;;4078206;28;20050;-63
2021/05/01 08:46:14;;;;;;;6.13;2.65;;;22.80;69.80;;;;;;4083130;28;20031;-61
2021/05/01 08:48:16;;;;;;;3.22;2.53;;;22.80;70.00;;;;;;4083413;28;20118;-63
2021/05/01 08:50:27;;;;;;;3.15;2.13;;;22.80;69.90;;;;;;4074317;28;20039;-67
2021/05/01 08:52:29;;;;;;;2.70;1.75;;;22.80;70.10;;;;;;4078017;28;20083;-66
2021/05/01 08:54:31;;;;;;;3.58;1.83;;;22.80;70.30;;;;;;4078350;28;20995;-64
2021/05/01 08:56:33;;;;;;;3.47;1.60;;;22.80;70.60;;;;;;4075334;28;20062;-61
2021/05/01 08:58:35;;;;;;;3.75;2.00;;;22.80;70.70;;;;;;4074454;28;20062;-62
2021/05/01 09:00:44;;;;;;;1.88;1.60;;;22.80;71.00;;;;;;4079929;28;20055;-62
2021/05/01 09:02:48;;;;;;;6.55;2.25;;;22.90;71.10;;;;;;4075193;28;20549;-61
2021/05/01 09:04:52;;;;;;;4.25;2.10;;;22.90;71.20;;;;;;4074014;28;20126;-64
2021/05/01 09:06:55;;;;;;;4.15;1.92;;;22.90;71.10;;;;;;4074662;28;20588;-64
2021/05/01 09:08:59;;;;;;;3.10;2.17;;;22.90;71.10;;;;;;4077148;28;20042;-62
2021/05/01 09:11:05;;;;;;;3.78;1.98;;;22.90;71.20;;;;;;4076966;28;20046;-62
2021/05/01 09:13:19;;;;;;;4.25;2.13;;;22.90;70.60;;;;;;4079697;28;20151;-65
2021/05/01 09:15:31;;;;;;;4.78;1.98;;;22.90;71.30;;;;;;4070798;28;20031;-65
2021/05/01 09:17:35;;;;;;;3.92;2.28;;;22.90;72.00;;;;;;4078600;28;20040;-63
2021/05/01 09:19:40;;;;;;;5.40;2.22;;;23.00;71.40;;;;;;4074876;28;20121;-63
2021/05/01 09:21:46;;;;;;;6.20;2.42;;;23.00;71.30;;;;;;4078794;28;20039;-62
2021/05/01 09:23:48;;;;;;;5.13;2.28;;;23.00;71.30;;;;;;4071834;28;20056;-65
2021/05/01 09:25:58;;;;;;;5.93;2.53;;;23.00;71.30;;;;;;4062506;28;20046;-65
2021/05/01 09:28:17;;;;;;;5.65;2.33;;;23.00;71.30;;;;;;4076491;28;20090;-63
2021/05/01 09:30:19;;;;;;;5.90;2.40;;;23.00;71.30;;;;;;4073916;28;20040;-63
2021/05/01 09:32:24;;;;;;;5.45;2.47;;;23.00;71.30;;;;;;4061513;29;20040;-67
2021/05/01 09:34:56;;;;;;;5.65;2.25;;;23.00;71.30;;;;;;4073590;28;20102;-63
2021/05/01 09:36:59;;;;;;;5.65;2.30;;;23.00;71.30;;;;;;4070160;28;20039;-65
2021/05/01 09:39:06;;;;;;;8.18;2.20;;;23.10;71.40;;;;;;4057933;28;20107;-63
2021/05/01 09:41:19;;;;;;;4.85;1.90;;;23.00;71.30;;;;;;4059795;28;20439;-64
2021/05/01 09:43:21;;;;;;;3.95;2.28;;;23.10;71.40;;;;;;4059149;28;20036;-65
2021/05/01 09:45:28;;;;;;;3.75;2.20;;;23.00;71.30;;;;;;4060340;29;20031;-64
2021/05/01 09:47:30;;;;;;;4.85;2.40;;;23.10;71.30;;;;;;4068931;28;20043;-66
2021/05/01 09:49:32;;;;;;;6.07;2.13;;;23.00;71.20;;;;;;4077218;28;20064;-64
2021/05/01 09:51:56;;;;;;;4.22;2.40;;;23.10;71.30;;;;;;4058451;29;20040;-65
2021/05/01 09:53:59;;;;;;;4.03;2.47;;;23.00;71.20;;;;;;4068728;28;20775;-64
2021/05/01 09:56:01;;;;;;;;;;;23.00;71.10;;;;;;4068309;28;20437;-62
2021/05/01 09:58:11;;;;;;;4.63;2.63;;;23.00;71.10;;;;;;4062108;29;20268;-61
2021/05/01 10:00:22;;;;;;;5.10;2.30;;;23.00;71.20;;;;;;4074144;28;20286;-61
2021/05/01 10:02:34;;;;;;;3.38;2.30;;;23.10;71.20;;;;;;4080544;28;20054;-62
2021/05/01 10:04:37;;;;;;;6.18;2.60;;;23.00;71.20;;;;;;4070960;28;20190;-66
2021/05/01 10:06:44;;;;;;;6.70;2.92;;;23.10;71.20;;;;;;4076206;28;20365;-65
2021/05/01 10:08:54;;;;;;;4.05;2.25;;;23.00;71.20;;;;;;4076485;28;20132;-65
2021/05/01 10:10:57;;;;;;;6.93;2.38;;;23.10;71.30;;;;;;4076554;28;20043;-66
2021/05/01 10:13:06;;;;;;;4.47;2.60;;;23.10;71.40;;;;;;4072682;28;20023;-63
2021/05/01 10:15:23;;;;;;;4.78;2.60;;;23.00;71.30;;;;;;4076288;28;20493;-68
2021/05/01 10:17:28;;;;;;;4.70;2.42;;;23.00;71.20;;;;;;4071366;28;20485;-62
2021/05/01 10:19:54;;;;;;;5.90;2.45;;;23.00;71.20;;;;;;4073472;28;20295;-61
2021/05/01 10:21:56;;;;;;;12.70;3.22;;;23.00;71.00;;;;;;4070445;29;20541;-69
2021/05/01 10:24:03;;;;;;;4.53;2.63;;;23.10;70.90;;;;;;4073449;28;20143;-62
2021/05/01 10:26:15;;;;;;;5.88;2.30;;;23.10;70.00;;;;;;4074686;28;20069;-60
2021/05/01 10:28:19;;;;;;;5.05;3.67;;;23.00;69.70;;;;;;4070774;28;20424;-65
2021/05/01 10:30:34;;;;;;;10.82;10.13;;;23.00;69.50;;;;;;4060823;29;20610;-63
2021/05/01 10:32:47;;;;;;;8.55;7.85;;;23.10;69.70;;;;;;4066374;28;20044;-63
2021/05/01 10:34:56;;;;;;;8.75;8.13;;;23.00;69.70;;;;;;4075353;28;20031;-63
2021/05/01 10:37:00;;;;;;;8.30;7.80;;;23.00;69.90;;;;;;4075747;28;20023;-61
2021/05/01 10:39:07;;;;;;;5.18;4.82;;;23.00;70.00;;;;;;4073065;28;20039;-64
2021/05/01 10:41:19;;;;;;;6.70;6.28;;;23.10;69.90;;;;;;4072882;28;20562;-63
2021/05/01 10:43:27;;;;;;;6.65;6.10;;;23.00;70.00;;;;;;4072915;28;20039;-63
2021/05/01 10:45:29;;;;;;;5.85;5.45;;;23.00;70.40;;;;;;4074813;28;20078;-63
2021/05/01 10:47:31;;;;;;;2.20;1.15;;;23.00;70.60;;;;;;4065799;28;20460;-62